Time;durP1;ratioP1;P1;durP2;ratioP2;P2;SDS_P1;SDS_P2;PMS_P1;PMS_P2;Temp;Humidity;BMP_temperature;BMP_pressure;BME280_temperature;BME280_humidity;BME280_pressure;Samples;Min_cycle;Max_cycle;Signal;HPM_P1;HPM_P2
2021/12/23 00:01:06;;;;;;;36.13;15.10;;;;;;;4.60;100.00;101502.16;5077621;28;20281;-54
2021/12/23 00:03:32;;;;;;;31.83;14.73;;;;;;;4.63;100.00;101496.63;5077663;28;20047;-55
2021/12/23 00:05:57;;;;;;;37.77;16.67;;;;;;;4.74;100.00;101499.09;5095733;28;20054;-49
2021/12/23 00:08:23;;;;;;;32.37;13.93;;;;;;;5.09;100.00;101523.34;5095977;28;20248;-52
2021/12/23 00:10:49;;;;;;;34.23;15.27;;;;;;;5.33;100.00;101547.72;5077714;28;20800;-57
2021/12/23 00:13:15;;;;;;;34.28;17.02;;;;;;;5.50;100.00;101557.56;5095714;28;20027;-54
2021/12/23 00:23:50;;;;;;;29.23;12.90;;;;;;;4.58;100.00;101498.81;5095657;28;20043;-52
2021/12/23 00:26:16;;;;;;;31.20;14.48;;;;;;;4.88;100.00;101507.63;5095381;28;20325;-53
2021/12/23 00:28:42;;;;;;;35.28;15.27;;;;;;;4.89;100.00;101503.97;5060577;28;20389;-54
2021/12/23 00:31:07;;;;;;;35.92;13.60;;;;;;;4.98;100.00;101503.13;5095601;28;20200;-52
2021/12/23 00:33:35;;;;;;;32.53;14.18;;;;;;;4.99;100.00;101502.16;5095364;28;20040;-52
2021/12/23 00:36:03;;;;;;;34.05;15.77;;;;;;;4.80;100.00;101502.16;5095658;28;20043;-49
2021/12/23 00:38:37;;;;;;;31.13;15.35;;;;;;;4.82;100.00;101492.25;5078849;28;20043;-50
2021/12/23 00:41:04;;;;;;;35.45;15.32;;;;;;;4.56;100.00;101464.53;5094991;28;20024;-49
2021/12/23 00:43:31;;;;;;;29.27;14.18;;;;;;;4.70;100.00;101468.56;5076440;28;20042;-53
2021/12/23 00:45:56;;;;;;;32.13;15.65;;;;;;;4.77;100.00;101468.00;5094641;28;20101;-49
2021/12/23 00:48:22;;;;;;;29.88;15.45;;;;;;;4.73;100.00;101460.34;5094830;28;20032;-50
2021/12/23 00:50:48;;;;;;;32.28;14.73;;;;;;;4.35;100.00;101450.59;5059951;28;20063;-53
2021/12/23 00:53:18;;;;;;;36.30;16.10;;;;;;;4.49;100.00;101452.00;5094150;28;20431;-52
2021/12/23 00:55:48;;;;;;;28.35;13.55;;;;;;;5.02;100.00;101454.13;5094925;28;20032;-52
2021/12/23 00:58:14;;;;;;;36.05;15.15;;;;;;;4.99;100.00;101469.50;5076929;28;20036;-54
2021/12/23 01:00:40;;;;;;;34.53;15.18;;;;;;;4.86;100.00;101461.88;5076663;28;20043;-55
2021/12/23 01:03:06;;;;;;;35.97;15.30;;;;;;;4.47;100.00;101438.06;5076876;28;20076;-50
2021/12/23 01:05:31;;;;;;;34.35;14.23;;;;;;;4.27;100.00;101422.16;5094660;28;20044;-51
2021/12/23 01:07:57;;;;;;;36.58;17.30;;;;;;;4.20;100.00;101410.47;5094924;28;20534;-50
2021/12/23 01:10:24;;;;;;;37.53;15.80;;;;;;;4.22;100.00;101408.50;5094532;28;20036;-51
2021/12/23 01:12:58;;;;;;;35.03;16.35;;;;;;;4.08;100.00;101430.94;5095046;28;20058;-59
2021/12/23 01:17:57;;;;;;;35.83;15.57;;;;;;;4.98;100.00;101460.72;5094815;28;20031;-59
2021/12/23 01:20:29;;;;;;;35.25;16.98;;;;;;;4.99;100.00;101465.03;5095943;28;20036;-60
2021/12/23 01:22:58;;;;;;;34.05;15.50;;;;;;;4.98;100.00;101458.06;5076760;28;20039;-60
2021/12/23 01:25:24;;;;;;;38.38;16.05;;;;;;;5.07;100.00;101460.81;5094652;28;20035;-60
2021/12/23 01:27:50;;;;;;;30.02;15.00;;;;;;;5.01;100.00;101454.28;5094570;28;20465;-60
2021/12/23 01:30:17;;;;;;;38.00;14.75;;;;;;;4.88;100.00;101444.81;5077120;28;20028;-61
2021/12/23 01:32:47;;;;;;;35.27;15.43;;;;;;;4.98;100.00;101433.38;5094417;28;20190;-59
2021/12/23 01:35:14;;;;;;;34.45;15.15;;;;;;;4.71;100.00;101425.19;5094848;28;20357;-60
2021/12/23 01:37:39;;;;;;;;;;;;;;;4.71;100.00;101430.50;5076988;28;20036;-57
2021/12/23 01:40:06;;;;;;;33.77;15.03;;;;;;;4.91;100.00;101422.50;5094548;28;20319;-60
2021/12/23 01:42:31;;;;;;;;;;;;;;;5.07;100.00;101429.00;5076724;28;20099;-59
2021/12/23 01:44:57;;;;;;;32.60;14.30;;;;;;;5.12;100.00;101416.16;5094288;28;20342;-60
2021/12/23 01:47:23;;;;;;;31.95;14.73;;;;;;;4.64;100.00;101399.41;5094296;28;20040;-61
2021/12/23 01:49:49;;;;;;;31.77;14.57;;;;;;;4.88;100.00;101388.34;5076113;28;20381;-60
2021/12/23 01:52:15;;;;;;;38.20;16.08;;;;;;;4.77;100.00;101381.41;5094496;28;20036;-60
2021/12/23 01:54:41;;;;;;;42.47;16.55;;;;;;;4.77;100.00;101383.19;5094030;28;20052;-59
2021/12/23 01:57:07;;;;;;;32.38;14.85;;;;;;;4.63;100.00;101384.50;5094717;28;20035;-59
2021/12/23 01:59:33;;;;;;;35.95;16.02;;;;;;;4.86;100.00;101396.44;5075985;28;20381;-60
2021/12/23 02:02:00;;;;;;;33.87;15.03;;;;;;;5.01;100.00;101388.84;5094316;28;20051;-59
2021/12/23 02:04:26;;;;;;;32.33;14.93;;;;;;;4.46;100.00;101389.53;5094246;28;20268;-60
2021/12/23 02:06:51;;;;;;;39.90;15.55;;;;;;;4.54;100.00;101387.03;5059390;28;20084;-60
2021/12/23 02:09:18;;;;;;;36.30;15.23;;;;;;;4.34;100.00;101374.78;5076047;28;20230;-60
2021/12/23 02:11:44;;;;;;;34.93;15.73;;;;;;;4.60;100.00;101382.94;5094654;28;20347;-60
2021/12/23 02:14:10;;;;;;;34.05;16.27;;;;;;;4.90;100.00;101383.72;5059319;28;20036;-60
2021/12/23 02:16:35;;;;;;;37.07;15.63;;;;;;;4.65;100.00;101378.09;5059473;28;20060;-60
2021/12/23 02:19:04;;;;;;;37.03;15.60;;;;;;;4.94;100.00;101371.84;5094486;28;20575;-60
2021/12/23 02:21:29;;;;;;;36.72;16.60;;;;;;;4.63;100.00;101353.53;5093368;28;20515;-61
2021/12/23 02:23:55;;;;;;;33.87;15.73;;;;;;;4.32;100.00;101353.72;5075648;28;20048;-60
2021/12/23 02:26:20;;;;;;;40.53;16.43;;;;;;;4.65;100.00;101367.47;5093970;28;20020;-60
2021/12/23 02:28:45;;;;;;;40.20;16.43;;;;;;;4.41;100.00;101370.56;5093837;28;20508;-59
2021/12/23 02:31:11;;;;;;;36.17;15.80;;;;;;;4.55;100.00;101364.00;5093610;28;20024;-61
2021/12/23 02:33:36;;;;;;;33.67;16.50;;;;;;;4.67;100.00;101370.81;5094023;28;20123;-60
2021/12/23 02:36:03;;;;;;;37.47;16.10;;;;;;;4.76;100.00;101366.47;5075509;28;20028;-60
2021/12/23 02:38:28;;;;;;;36.88;16.88;;;;;;;4.79;100.00;101368.84;5093771;28;20065;-59
2021/12/23 02:40:54;;;;;;;40.43;16.23;;;;;;;4.74;100.00;101371.09;5093710;28;20031;-60
2021/12/23 02:43:23;;;;;;;38.15;16.55;;;;;;;4.82;100.00;101367.69;5075475;28;20269;-60
2021/12/23 02:45:50;;;;;;;38.05;16.98;;;;;;;4.35;100.00;101361.38;5093405;28;20525;-60
2021/12/23 02:48:22;;;;;;;34.53;15.90;;;;;;;4.72;100.00;101352.66;5075710;28;20350;-60
2021/12/23 02:50:50;;;;;;;37.85;16.08;;;;;;;4.67;100.00;101354.94;5093613;28;20103;-62
2021/12/23 02:53:16;;;;;;;35.25;16.90;;;;;;;4.34;100.00;101353.59;5093020;28;20065;-60
2021/12/23 02:55:42;;;;;;;40.83;15.73;;;;;;;4.05;100.00;101349.97;5093429;28;20040;-59
2021/12/23 02:58:09;;;;;;;37.95;16.73;;;;;;;4.27;100.00;101348.03;5075673;28;20036;-59
2021/12/23 03:00:37;;;;;;;38.35;16.35;;;;;;;4.35;100.00;101337.53;5094065;28;20037;-60
2021/12/23 03:03:03;;;;;;;37.75;17.08;;;;;;;3.87;100.00;101337.44;5093222;28;20024;-59
2021/12/23 03:05:28;;;;;;;31.67;15.02;;;;;;;4.00;100.00;101318.63;5094083;28;20202;-59
2021/12/23 03:07:54;;;;;;;37.90;15.63;;;;;;;3.59;100.00;101302.91;5093169;28;20028;-60
2021/12/23 03:10:22;;;;;;;37.03;16.05;;;;;;;3.71;100.00;101300.97;5093227;28;20051;-60
2021/12/23 03:12:48;;;;;;;40.10;16.05;;;;;;;3.72;100.00;101296.53;5058592;28;20028;-60
2021/12/23 03:15:14;;;;;;;39.33;17.20;;;;;;;3.70;100.00;101282.59;5093450;28;20047;-60
2021/12/23 03:17:39;;;;;;;33.22;14.70;;;;;;;3.53;100.00;101284.94;5075686;28;20361;-61
2021/12/23 03:20:06;;;;;;;32.10;14.60;;;;;;;3.52;100.00;101279.78;5093075;28;20043;-60
2021/12/23 03:22:31;;;;;;;36.13;15.05;;;;;;;3.55;100.00;101283.00;5093168;28;20461;-60
2021/12/23 03:24:57;;;;;;;37.37;17.37;;;;;;;3.72;100.00;101275.34;5075304;28;20059;-60
2021/12/23 03:27:22;;;;;;;35.67;18.40;;;;;;;3.63;100.00;101255.00;5093034;28;20060;-60
2021/12/23 03:29:48;;;;;;;38.38;16.92;;;;;;;3.25;100.00;101258.34;5093240;28;20103;-60
2021/12/23 03:32:13;;;;;;;39.93;17.10;;;;;;;3.48;100.00;101268.66;5093223;28;20040;-60
2021/12/23 03:34:39;;;;;;;38.47;16.40;;;;;;;3.37;100.00;101271.41;5096495;28;20082;-60
2021/12/23 03:37:04;;;;;;;37.83;15.45;;;;;;;3.44;100.00;101244.28;5097039;28;20527;-60
2021/12/23 03:39:30;;;;;;;37.05;17.02;;;;;;;3.58;100.00;101247.50;5078915;28;20403;-60
2021/12/23 03:41:55;;;;;;;35.70;15.68;;;;;;;3.52;100.00;101242.75;5096600;28;20160;-59
2021/12/23 03:44:21;;;;;;;40.80;18.40;;;;;;;3.48;100.00;101236.94;5078768;28;20036;-60
2021/12/23 03:46:46;;;;;;;38.72;15.95;;;;;;;3.62;100.00;101243.59;5096863;28;20044;-59
2021/12/23 03:49:12;;;;;;;41.50;16.30;;;;;;;3.59;100.00;101228.03;5062042;28;20476;-60
2021/12/23 03:51:38;;;;;;;37.05;17.58;;;;;;;3.50;100.00;101224.41;5096500;28;20389;-60
2021/12/23 03:54:03;;;;;;;36.20;15.53;;;;;;;3.57;100.00;101230.78;5078613;28;20138;-60
2021/12/23 03:56:29;;;;;;;38.80;16.60;;;;;;;3.69;100.00;101234.13;5096785;28;20074;-59
2021/12/23 03:58:56;;;;;;;50.15;18.83;;;;;;;3.93;100.00;101218.81;5096902;28;20032;-58
2021/12/23 04:01:27;;;;;;;41.03;17.92;;;;;;;3.65;100.00;101213.38;5078776;28;20040;-59
2021/12/23 04:03:53;;;;;;;39.38;18.05;;;;;;;3.43;100.00;101202.97;5096245;28;20035;-60
2021/12/23 04:06:20;;;;;;;38.80;17.30;;;;;;;3.59;100.00;101204.22;5096897;28;20028;-60
2021/12/23 04:08:46;;;;;;;37.78;16.85;;;;;;;4.20;100.00;101211.91;5078086;28;20080;-57
2021/12/23 04:11:12;;;;;;;41.45;16.58;;;;;;;4.12;100.00;101212.63;5096187;28;20023;-60
2021/12/23 04:13:38;;;;;;;42.15;17.48;;;;;;;4.14;100.00;101211.47;5078075;28;20036;-60
2021/12/23 04:16:04;;;;;;;41.63;17.67;;;;;;;3.87;100.00;101221.00;5096055;28;20077;-60
2021/12/23 04:18:29;;;;;;;37.15;17.33;;;;;;;3.82;100.00;101215.31;5078713;28;20369;-60
2021/12/23 04:20:55;;;;;;;39.83;17.03;;;;;;;4.19;100.00;101215.53;5096517;28;20028;-59
2021/12/23 04:23:23;;;;;;;30.17;15.30;;;;;;;4.08;100.00;101237.72;5096212;28;20032;-60
2021/12/23 04:25:49;;;;;;;38.78;17.75;;;;;;;4.00;100.00;101218.06;5077715;28;20314;-60
2021/12/23 04:28:14;;;;;;;46.38;18.35;;;;;;;3.95;100.00;101211.53;5096121;28;20040;-59
2021/12/23 04:30:40;;;;;;;46.80;17.03;;;;;;;3.76;100.00;101200.03;5095824;28;20481;-58
2021/12/23 04:33:06;;;;;;;41.70;17.63;;;;;;;3.71;100.00;101196.97;5095958;28;20363;-60
2021/12/23 04:35:31;;;;;;;40.53;18.23;;;;;;;3.95;100.00;101198.31;5096147;28;20036;-59
2021/12/23 04:37:57;;;;;;;32.20;14.25;;;;;;;4.23;100.00;101193.91;5096907;28;20040;-60
2021/12/23 04:40:22;;;;;;;41.30;17.73;;;;;;;3.81;100.00;101194.31;5096486;28;20032;-61
2021/12/23 04:42:48;;;;;;;33.33;15.35;;;;;;;3.90;100.00;101190.78;5096420;28;20036;-58
2021/12/23 04:45:14;;;;;;;38.80;16.10;;;;;;;3.78;100.00;101207.78;5096752;28;20123;-62
2021/12/23 04:47:40;;;;;;;41.55;19.27;;;;;;;3.98;100.00;101206.78;5079845;28;20123;-60
2021/12/23 04:50:13;;;;;;;37.72;16.88;;;;;;;4.29;100.00;101208.38;5096944;28;20050;-60
2021/12/23 04:52:39;;;;;;;39.50;17.10;;;;;;;3.93;100.00;101224.91;5078183;28;20047;-59
2021/12/23 04:55:06;;;;;;;49.17;19.40;;;;;;;3.94;100.00;101208.06;5096839;28;20092;-59
2021/12/23 04:57:31;;;;;;;;;;;;;;;4.19;100.00;101192.53;5061647;28;20040;-60
2021/12/23 04:59:57;;;;;;;46.20;20.50;;;;;;;4.00;100.00;101193.41;5095232;28;19912;-60
2021/12/23 05:02:23;;;;;;;39.85;16.52;;;;;;;4.07;100.00;101183.91;5060988;28;20525;-60
2021/12/23 05:04:50;;;;;;;36.53;16.88;;;;;;;4.13;100.00;101201.88;5060774;28;20119;-59
2021/12/23 05:07:20;;;;;;;52.33;22.92;;;;;;;4.16;100.00;101192.81;5095282;28;20119;-60
2021/12/23 05:09:46;;;;;;;42.15;18.50;;;;;;;4.50;100.00;101200.22;5095324;28;20350;-60
2021/12/23 05:12:12;;;;;;;43.22;18.85;;;;;;;4.78;100.00;101196.72;5077079;28;20035;-59
2021/12/23 05:14:38;;;;;;;45.85;19.67;;;;;;;4.58;100.00;101189.72;5076780;28;20074;-58
2021/12/23 05:17:03;;;;;;;47.80;19.90;;;;;;;4.63;100.00;101189.28;5094853;28;20055;-61
2021/12/23 05:19:29;;;;;;;43.55;20.00;;;;;;;5.00;100.00;101190.19;5077703;28;20047;-59
2021/12/23 05:21:54;;;;;;;46.60;20.67;;;;;;;5.01;100.00;101183.91;5076952;28;20040;-59
2021/12/23 05:24:20;;;;;;;48.28;20.23;;;;;;;4.68;100.00;101170.28;5077392;28;20046;-59
2021/12/23 05:26:45;;;;;;;52.20;20.60;;;;;;;4.41;100.00;101159.56;5060224;28;20434;-60
2021/12/23 05:29:11;;;;;;;48.77;20.77;;;;;;;4.42;100.00;101145.34;5076948;28;20036;-60
2021/12/23 05:31:39;;;;;;;42.80;19.50;;;;;;;4.69;100.00;101151.59;5095294;28;20272;-62
2021/12/23 05:34:04;;;;;;;45.83;19.60;;;;;;;4.35;100.00;101136.28;5064100;28;20040;-60
2021/12/23 05:36:30;;;;;;;45.10;19.73;;;;;;;4.39;100.00;101135.03;5097539;28;20056;-60
2021/12/23 05:38:56;;;;;;;46.03;18.83;;;;;;;4.58;100.00;101139.38;5076765;28;20276;-59
2021/12/23 05:41:26;;;;;;;47.88;20.63;;;;;;;4.48;100.00;101140.41;5095319;28;20127;-60
2021/12/23 05:43:52;;;;;;;42.50;19.00;;;;;;;4.32;100.00;101139.22;5095014;28;20115;-60
2021/12/23 05:46:17;;;;;;;52.20;21.80;;;;;;;4.21;100.00;101140.25;5076260;28;20481;-61
2021/12/23 05:48:43;;;;;;;50.70;21.27;;;;;;;4.30;100.00;101157.09;5094639;28;20040;-60
2021/12/23 05:51:08;;;;;;;52.03;21.77;;;;;;;4.28;100.00;101138.72;5077030;28;20028;-60
2021/12/23 05:53:34;;;;;;;47.45;20.25;;;;;;;4.18;100.00;101127.31;5094121;28;20062;-60
2021/12/23 05:55:59;;;;;;;48.20;20.00;;;;;;;4.43;100.00;101119.66;5059172;28;20043;-60
2021/12/23 05:58:25;;;;;;;56.03;22.60;;;;;;;4.59;100.00;101124.31;5093744;28;20276;-60
2021/12/23 06:00:53;;;;;;;49.87;21.27;;;;;;;4.34;100.00;101108.16;5076445;28;20031;-60
2021/12/23 06:03:19;;;;;;;50.92;21.85;;;;;;;4.58;100.00;101117.34;5094638;28;20461;-60
2021/12/23 06:05:44;;;;;;;53.25;21.88;;;;;;;4.64;100.00;101108.81;5094060;28;20485;-60
2021/12/23 06:08:10;;;;;;;52.85;21.83;;;;;;;4.21;100.00;101099.72;5094511;28;20071;-60
2021/12/23 06:10:35;;;;;;;57.20;21.53;;;;;;;4.14;100.00;101092.34;5075876;28;20036;-60
2021/12/23 06:13:01;;;;;;;53.93;22.50;;;;;;;4.18;100.00;101089.44;5076241;28;20040;-59
2021/12/23 06:15:26;;;;;;;50.40;21.93;;;;;;;4.34;100.00;101075.53;5094476;28;20060;-60
2021/12/23 06:17:52;;;;;;;49.57;22.40;;;;;;;4.26;100.00;101081.56;5093792;28;20086;-60
2021/12/23 06:20:17;;;;;;;54.97;21.70;;;;;;;3.97;100.00;101079.91;5075934;28;20673;-60
2021/12/23 06:22:43;;;;;;;55.67;22.10;;;;;;;4.19;100.00;101091.09;5075935;28;20085;-58
2021/12/23 06:25:10;;;;;;;47.42;20.67;;;;;;;4.25;100.00;101090.50;5075822;28;20051;-59
2021/12/23 06:27:36;;;;;;;50.72;22.33;;;;;;;4.38;100.00;101093.66;5059111;28;20039;-59
2021/12/23 06:30:12;;;;;;;49.53;22.08;;;;;;;4.19;100.00;101080.50;5093638;28;20036;-60
2021/12/23 06:32:38;;;;;;;49.50;22.33;;;;;;;4.27;100.00;101085.91;5093851;28;20035;-59
2021/12/23 06:35:04;;;;;;;59.03;22.30;;;;;;;4.63;100.00;101091.25;5093387;28;20028;-59
2021/12/23 06:37:29;;;;;;;58.10;23.15;;;;;;;4.49;100.00;101086.47;5093515;28;20150;-59
2021/12/23 06:39:54;;;;;;;56.57;22.77;;;;;;;4.62;100.00;101092.25;5093531;28;20028;-59
2021/12/23 06:42:23;;;;;;;58.70;25.43;;;;;;;4.64;100.00;101100.03;5075753;28;20036;-60
2021/12/23 06:44:48;;;;;;;54.08;23.67;;;;;;;4.78;100.00;101088.06;5076236;28;20519;-59
2021/12/23 06:47:14;;;;;;;61.53;23.10;;;;;;;4.83;100.00;101084.00;5093334;28;20044;-59
2021/12/23 06:49:39;;;;;;;55.40;22.33;;;;;;;4.76;100.00;101082.94;5059303;28;20269;-60
2021/12/23 06:52:05;;;;;;;50.90;22.40;;;;;;;4.97;100.00;101082.63;5093828;28;20461;-59
2021/12/23 06:54:30;;;;;;;52.60;22.08;;;;;;;5.00;100.00;101094.75;5075250;28;20051;-60
2021/12/23 06:56:56;;;;;;;56.80;22.63;;;;;;;5.15;100.00;101100.34;5093091;28;20115;-60
2021/12/23 06:59:22;;;;;;;52.33;21.02;;;;;;;5.08;100.00;101105.41;5075445;28;20443;-60
2021/12/23 07:01:48;;;;;;;55.75;20.45;;;;;;;5.07;100.00;101109.06;5075226;28;20042;-60
2021/12/23 07:04:17;;;;;;;53.45;21.13;;;;;;;5.27;100.00;101116.84;5058844;28;20032;-57
2021/12/23 07:06:48;;;;;;;52.40;22.85;;;;;;;5.45;100.00;101114.16;5093084;28;20444;-59
2021/12/23 07:09:15;;;;;;;54.60;22.35;;;;;;;5.28;100.00;101114.03;5096337;28;20028;-59
2021/12/23 07:11:40;;;;;;;52.38;23.15;;;;;;;5.24;100.00;101107.38;5097256;28;20060;-58
2021/12/23 07:14:06;;;;;;;56.70;23.85;;;;;;;4.86;100.00;101104.06;5097600;28;20090;-58
2021/12/23 07:16:32;;;;;;;52.80;22.77;;;;;;;5.14;100.00;101102.16;5063250;28;20040;-59
2021/12/23 07:18:57;;;;;;;45.45;20.30;;;;;;;5.19;100.00;101098.19;5097177;28;20105;-59
2021/12/23 07:21:23;;;;;;;51.33;21.90;;;;;;;5.24;100.00;101104.72;5079329;28;20454;-59
2021/12/23 07:23:48;;;;;;;49.63;22.20;;;;;;;5.13;100.00;101097.84;5097512;28;20400;-60
2021/12/23 07:26:15;;;;;;;48.27;21.03;;;;;;;5.24;100.00;101104.72;5078715;28;20484;-59
2021/12/23 07:28:41;;;;;;;48.97;21.30;;;;;;;5.42;100.00;101087.94;5078762;28;20043;-59
2021/12/23 07:31:07;;;;;;;51.70;20.67;;;;;;;5.55;100.00;101088.38;5097035;28;20016;-59
2021/12/23 07:33:34;;;;;;;50.92;23.15;;;;;;;5.27;100.00;101083.19;5079099;28;20036;-57
2021/12/23 07:36:01;;;;;;;53.88;23.10;;;;;;;5.08;100.00;101080.75;5096894;28;20043;-57
2021/12/23 07:38:26;;;;;;;56.33;22.80;;;;;;;5.02;100.00;101088.28;5097068;28;20376;-59
2021/12/23 07:40:52;;;;;;;50.22;20.80;;;;;;;5.20;100.00;101100.72;5096879;28;20259;-59
2021/12/23 07:46:03;;;;;;;50.28;20.40;;;;;;;5.11;100.00;101094.50;5078670;28;20280;-59
2021/12/23 07:48:30;;;;;;;54.47;23.27;;;;;;;5.03;100.00;101092.59;5097414;28;20043;-60
2021/12/23 07:50:57;;;;;;;57.60;24.52;;;;;;;5.17;100.00;101085.13;5097073;28;20092;-59
2021/12/23 07:53:22;;;;;;;;;;;;;;;5.26;100.00;101084.19;5097219;28;20164;-59
2021/12/23 07:55:48;;;;;;;53.40;20.97;;;;;;;5.27;100.00;101090.31;5097100;28;20023;-60
2021/12/23 07:58:14;;;;;;;49.13;20.75;;;;;;;5.09;100.00;101083.22;5096560;28;20053;-59
2021/12/23 08:00:39;;;;;;;51.00;21.30;;;;;;;5.05;100.00;101086.31;5096607;28;20189;-58
2021/12/23 08:03:05;;;;;;;51.28;22.38;;;;;;;5.25;100.00;101095.78;5096586;28;20457;-62
2021/12/23 08:05:31;;;;;;;45.10;18.45;;;;;;;5.31;100.00;101092.53;5096570;28;20457;-60
2021/12/23 08:07:57;;;;;;;54.85;21.88;;;;;;;5.70;100.00;101085.97;5096613;28;20165;-60
2021/12/23 08:10:23;;;;;;;53.05;20.55;;;;;;;5.50;100.00;101087.16;5096460;28;20039;-60
2021/12/23 08:12:49;;;;;;;61.70;23.75;;;;;;;5.44;100.00;101078.00;5078523;28;20040;-59
2021/12/23 08:15:15;;;;;;;53.05;22.83;;;;;;;5.54;100.00;101070.78;5096185;28;20062;-59
2021/12/23 08:17:41;;;;;;;52.85;22.27;;;;;;;5.20;100.00;101068.06;5095882;28;20032;-60
2021/12/23 08:20:08;;;;;;;56.00;23.05;;;;;;;5.22;100.00;101069.56;5095351;28;20032;-59
2021/12/23 08:22:33;;;;;;;57.30;24.03;;;;;;;5.20;100.00;101060.13;5078489;28;20119;-60
2021/12/23 08:24:59;;;;;;;40.40;18.63;;;;;;;5.17;100.00;101055.94;5095662;28;20276;-59
2021/12/23 08:27:27;;;;;;;53.17;20.10;;;;;;;5.20;100.00;101044.22;5095998;28;20248;-59
2021/12/23 08:29:54;;;;;;;54.08;24.15;;;;;;;4.86;100.00;101040.47;5096011;28;20036;-60
2021/12/23 08:32:21;;;;;;;61.57;23.77;;;;;;;5.03;100.00;101047.53;5077787;28;20040;-60
2021/12/23 08:34:46;;;;;;;51.63;22.65;;;;;;;5.06;100.00;101040.28;5077515;28;20054;-58
2021/12/23 08:37:12;;;;;;;53.55;22.10;;;;;;;5.12;100.00;101023.78;5077720;28;20461;-59
2021/12/23 08:39:39;;;;;;;54.20;21.27;;;;;;;5.05;100.00;101043.91;5095666;28;20101;-59
2021/12/23 08:42:05;;;;;;;50.83;21.85;;;;;;;5.37;100.00;101027.41;5078674;28;20036;-61
2021/12/23 08:44:31;;;;;;;57.75;21.20;;;;;;;5.08;100.00;101028.53;5096544;28;20655;-59
2021/12/23 08:46:57;;;;;;;54.78;22.42;;;;;;;5.27;100.00;101016.06;5096553;28;20039;-60
2021/12/23 08:49:22;;;;;;;53.10;22.27;;;;;;;4.94;100.00;100997.28;5078151;28;20115;-59
2021/12/23 08:51:48;;;;;;;58.03;23.77;;;;;;;4.84;100.00;100997.34;5079907;28;20394;-60
2021/12/23 08:54:13;;;;;;;50.20;21.83;;;;;;;5.17;100.00;100997.63;5079553;28;20397;-59
2021/12/23 08:56:39;;;;;;;56.13;22.33;;;;;;;5.03;100.00;101004.31;5097110;28;20268;-58
2021/12/23 08:59:05;;;;;;;52.77;22.67;;;;;;;5.13;100.00;101014.81;5097289;28;20028;-60
2021/12/23 09:01:31;;;;;;;56.42;24.00;;;;;;;5.21;100.00;100998.97;5096250;28;20035;-59
2021/12/23 09:03:56;;;;;;;59.30;23.13;;;;;;;5.14;100.00;100979.38;5078629;28;20032;-59
2021/12/23 09:06:22;;;;;;;66.37;26.60;;;;;;;5.28;100.00;100988.56;5096256;28;20115;-61
2021/12/23 09:08:47;;;;;;;56.90;25.20;;;;;;;5.24;100.00;100976.63;5096144;28;20028;-60
2021/12/23 09:11:13;;;;;;;46.72;19.25;;;;;;;5.88;100.00;100984.19;5046426;28;20044;-61
2021/12/23 09:13:39;;;;;;;57.90;23.55;;;;;;;5.47;100.00;100990.16;5079695;28;20603;-60
2021/12/23 09:16:04;;;;;;;45.53;18.20;;;;;;;5.88;100.00;100987.69;5098311;28;20032;-60
2021/12/23 09:18:30;;;;;;;54.90;21.53;;;;;;;5.76;100.00;100982.81;5081102;28;20265;-58
2021/12/23 09:20:56;;;;;;;56.03;21.43;;;;;;;5.75;100.00;100981.97;5097826;28;20044;-58
2021/12/23 09:23:23;;;;;;;57.40;25.25;;;;;;;5.68;100.00;100975.66;5077867;28;20453;-59
2021/12/23 09:25:52;;;;;;;54.95;22.48;;;;;;;5.38;100.00;100964.59;5095962;28;20032;-60
2021/12/23 09:33:35;;;;;;;63.72;26.42;;;;;;;5.73;100.00;100962.72;5095931;28;20035;-59
2021/12/23 09:36:01;;;;;;;59.13;22.17;;;;;;;5.81;100.00;100953.97;5078098;28;20039;-60
2021/12/23 09:38:27;;;;;;;59.95;24.63;;;;;;;6.10;100.00;100950.09;5095932;28;20036;-60
2021/12/23 09:41:03;;;;;;;53.42;21.92;;;;;;;5.80;100.00;100947.84;5077348;28;20042;-60
2021/12/23 09:43:31;;;;;;;59.83;22.52;;;;;;;5.44;100.00;100940.91;5095947;28;20028;-60
2021/12/23 09:45:57;;;;;;;52.42;22.95;;;;;;;5.58;100.00;100931.53;5097796;28;20054;-59
2021/12/23 09:48:22;;;;;;;57.42;23.55;;;;;;;5.56;100.00;100933.50;5097614;28;20516;-61
2021/12/23 09:50:50;;;;;;;56.95;22.63;;;;;;;5.86;100.00;100938.38;5096946;28;20083;-61
2021/12/23 09:53:21;;;;;;;52.15;21.05;;;;;;;5.94;100.00;100938.44;5097882;28;20036;-55
2021/12/23 09:55:47;;;;;;;58.95;24.00;;;;;;;5.80;100.00;100928.44;5097716;28;20036;-60
2021/12/23 09:58:12;;;;;;;58.45;21.35;;;;;;;5.82;100.00;100926.44;5100515;28;20074;-61
2021/12/23 10:00:45;;;;;;;53.45;22.08;;;;;;;6.09;100.00;100932.50;5100681;28;20509;-60
2021/12/23 10:03:15;;;;;;;51.85;21.42;;;;;;;6.01;100.00;100918.22;5100416;28;20051;-63
2021/12/23 10:05:41;;;;;;;57.80;23.63;;;;;;;6.26;100.00;100923.56;5100217;28;20119;-61
2021/12/23 10:08:10;;;;;;;52.15;21.77;;;;;;;6.35;100.00;100921.75;5083242;28;20067;-61
2021/12/23 10:10:42;;;;;;;61.63;24.60;;;;;;;6.34;100.00;100927.22;5097899;28;20044;-61
2021/12/23 10:38:06;;;;;;;56.10;21.85;;;;;;;6.72;100.00;100877.88;5095027;28;20115;-60
2021/12/23 10:40:32;;;;;;;48.85;20.60;;;;;;;6.36;100.00;100878.25;5095254;28;20070;-63
2021/12/23 10:42:58;;;;;;;46.90;20.42;;;;;;;6.62;100.00;100866.59;5093956;28;20028;-60
2021/12/23 10:45:23;;;;;;;55.95;24.33;;;;;;;6.47;100.00;100863.78;5094183;28;20535;-60
2021/12/23 10:50:38;;;;;;;55.72;21.92;;;;;;;6.60;100.00;100853.50;5094071;28;20032;-61
2021/12/23 10:53:27;;;;;;;49.65;22.10;;;;;;;6.73;100.00;100836.19;5094747;28;20530;-61
2021/12/23 10:59:17;;;;;;;49.95;21.05;;;;;;;7.16;100.00;100835.88;5094112;28;20039;-60
2021/12/23 11:02:08;;;;;;;51.28;21.73;;;;;;;6.96;100.00;100841.63;5094043;28;20117;-59
2021/12/23 11:04:56;;;;;;;54.33;22.88;;;;;;;6.60;100.00;100829.59;5094305;28;20036;-60
2021/12/23 11:07:26;;;;;;;59.10;22.02;;;;;;;6.99;100.00;100825.31;5093684;28;20025;-59
2021/12/23 11:10:17;;;;;;;47.75;20.02;;;;;;;6.85;100.00;100823.34;5093479;28;20081;-60
2021/12/23 11:37:54;;;;;;;55.58;21.13;;;;;;;7.47;100.00;100764.03;5095402;28;20054;-59
2021/12/23 11:40:37;;;;;;;55.00;23.98;;;;;;;7.27;100.00;100758.34;5077101;28;20040;-59
2021/12/23 11:45:32;;;;;;;55.97;24.27;;;;;;;7.67;100.00;100762.75;5094052;28;20103;-61
2021/12/23 11:47:58;;;;;;;52.28;22.02;;;;;;;7.77;100.00;100760.66;5093599;28;20085;-63
2021/12/23 11:50:31;;;;;;;50.40;20.15;;;;;;;7.55;100.00;100760.50;5093382;28;20027;-61
2021/12/23 11:52:58;;;;;;;44.97;18.70;;;;;;;7.98;100.00;100751.16;5093203;28;20110;-61
2021/12/23 11:55:24;;;;;;;51.80;22.17;;;;;;;7.80;100.00;100739.00;5096772;28;20044;-60
2021/12/23 11:57:52;;;;;;;45.35;18.20;;;;;;;7.58;100.00;100741.50;5097290;28;20040;-61
2021/12/23 12:00:32;;;;;;;48.05;20.13;;;;;;;7.95;100.00;100738.22;5078779;28;20036;-60
2021/12/23 12:03:03;;;;;;;54.85;19.90;;;;;;;7.79;100.00;100716.03;5096992;28;20089;-60
2021/12/23 12:05:30;;;;;;;50.65;20.95;;;;;;;8.00;100.00;100719.84;5078565;28;20048;-55
2021/12/23 12:08:07;;;;;;;48.85;20.67;;;;;;;7.80;100.00;100708.91;5078875;28;20055;-60
2021/12/23 12:10:35;;;;;;;54.15;20.13;;;;;;;8.27;100.00;100702.44;5096813;28;20032;-59
2021/12/23 12:13:03;;;;;;;53.58;20.58;;;;;;;8.29;100.00;100705.75;5078376;28;20028;-60
2021/12/23 12:15:47;;;;;;;48.72;20.98;;;;;;;8.15;100.00;100696.75;5096164;28;20089;-60
2021/12/23 12:18:19;;;;;;;45.70;20.67;;;;;;;7.81;100.00;100678.59;5096527;28;20051;-60
2021/12/23 12:20:50;;;;;;;52.00;22.48;;;;;;;7.73;100.00;100675.03;5096525;28;20496;-61
2021/12/23 12:23:30;;;;;;;49.85;21.35;;;;;;;8.23;100.00;100671.00;5096194;28;20151;-60
2021/12/23 12:26:03;;;;;;;54.92;22.98;;;;;;;8.01;100.00;100668.25;5078492;28;20032;-61